createdAt,value
2023-02-01T00:02:37.253Z,68.19
2023-02-01T00:05:22.011Z,68.38
2023-02-01T00:08:07.580Z,69.37
2023-02-01T00:10:50.574Z,68.78
2023-02-01T00:13:37.947Z,69.56
2023-02-01T00:16:23.979Z,68.75
2023-02-01T00:19:10.100Z,68.74
2023-02-01T00:21:54.526Z,69.48
2023-02-01T00:24:46.928Z,69.07
2023-02-01T00:27:30.033Z,69.02
2023-02-01T00:30:16.067Z,69.98
2023-02-01T00:32:59.474Z,68.86
2023-02-01T00:35:42.609Z,68.67
2023-02-01T00:38:29.606Z,68.44
2023-02-01T00:41:14.827Z,68.46
2023-02-01T00:43:58.037Z,68.26
2023-02-01T00:46:45.747Z,67.37
2023-02-01T00:49:33.639Z,67.50
2023-02-01T00:52:25.408Z,67.34
2023-02-01T00:55:10.509Z,69.04
2023-02-01T00:57:53.857Z,67.06
2023-02-01T01:00:37.395Z,66.32
2023-02-01T01:03:20.529Z,66.42
2023-02-01T01:06:05.400Z,66.16
2023-02-01T01:08:48.995Z,67.32
2023-02-01T01:11:44.548Z,67.97
2023-02-01T01:14:27.698Z,66.38
2023-02-01T01:17:10.775Z,66.39
2023-02-01T01:19:54.910Z,66.08
2023-02-01T01:22:38.016Z,64.91
2023-02-01T01:25:21.210Z,65.14
2023-02-01T01:28:06.044Z,65.14
2023-02-01T01:30:49.346Z,64.16
2023-02-01T01:33:34.394Z,63.94
2023-02-01T01:36:18.154Z,63.97
2023-02-01T01:39:01.282Z,62.74
2023-02-01T01:41:44.457Z,62.74
2023-02-01T01:45:01.356Z,62.23
2023-02-01T01:47:50.276Z,62.09
2023-02-01T01:50:39.527Z,60.84
2023-02-01T01:53:27.844Z,61.52
2023-02-01T01:56:14.339Z,61.09
2023-02-01T01:58:57.839Z,60.50
2023-02-01T02:01:42.581Z,60.80
2023-02-01T02:04:27.055Z,61.94
2023-02-01T02:07:14.406Z,61.53
2023-02-01T02:10:00.843Z,61.61
2023-02-01T02:12:47.624Z,61.08
2023-02-01T02:15:34.758Z,62.37
2023-02-01T02:18:27.950Z,64.08
2023-02-01T02:21:19.992Z,64.01
2023-02-01T02:24:26.694Z,64.37
2023-02-01T02:27:25.833Z,65.35
2023-02-01T02:30:41.212Z,65.01
2023-02-01T02:33:50.894Z,65.86
2023-02-01T02:36:43.330Z,66.10
2023-02-01T02:39:37.326Z,65.22
2023-02-01T02:42:55.244Z,65.95
2023-02-01T02:46:02.683Z,65.79
2023-02-01T02:48:53.176Z,66.18
2023-02-01T02:51:59.670Z,65.57
2023-02-01T02:54:55.465Z,65.49
2023-02-01T02:58:01.573Z,65.44
2023-02-01T03:01:06.019Z,65.69
2023-02-01T03:04:12.626Z,65.13
2023-02-01T03:06:56.307Z,66.09
2023-02-01T03:09:42.488Z,64.11
2023-02-01T03:12:43.003Z,64.07
2023-02-01T03:15:29.093Z,63.65
2023-02-01T03:18:19.081Z,63.14
2023-02-01T03:21:10.760Z,63.28
2023-02-01T03:23:58.882Z,61.87
2023-02-01T03:26:52.958Z,61.23
2023-02-01T03:29:48.203Z,61.09
2023-02-01T03:32:54.236Z,61.61
2023-02-01T03:35:42.959Z,61.15
2023-02-01T03:38:33.365Z,61.67
2023-02-01T03:41:22.266Z,60.73
2023-02-01T03:44:15.059Z,60.11
2023-02-01T03:47:04.501Z,61.00
2023-02-01T03:49:52.396Z,61.01
2023-02-01T03:52:42.558Z,62.63
2023-02-01T03:55:31.917Z,61.19
2023-02-01T03:58:20.137Z,61.34
2023-02-01T04:01:03.523Z,61.10
2023-02-01T04:03:46.576Z,62.03
2023-02-01T04:06:29.773Z,60.62
2023-02-01T04:09:15.675Z,61.16
2023-02-01T04:12:02.596Z,61.26
2023-02-01T04:14:47.840Z,61.08
2023-02-01T04:17:30.997Z,61.35
2023-02-01T04:20:14.159Z,60.92
2023-02-01T04:22:59.339Z,60.28
2023-02-01T04:25:42.538Z,60.84
2023-02-01T04:28:27.033Z,60.47
2023-02-01T04:31:10.255Z,61.08
2023-02-01T04:33:54.724Z,60.82
2023-02-01T04:36:40.501Z,61.66
2023-02-01T04:39:23.686Z,62.26
2023-02-01T04:42:06.925Z,61.96
2023-02-01T04:44:51.996Z,61.93
2023-02-01T04:47:35.288Z,61.92
2023-02-01T04:50:18.836Z,62.13
2023-02-01T04:53:02.090Z,62.92
2023-02-01T04:55:45.965Z,62.83
2023-02-01T04:58:29.377Z,63.41
2023-02-01T05:01:15.429Z,62.95
2023-02-01T05:03:58.991Z,63.22
2023-02-01T05:09:42.605Z,63.09
2023-02-01T05:12:54.506Z,63.23
2023-02-01T05:15:37.676Z,64.50
2023-02-01T05:18:22.277Z,65.26
2023-02-01T05:21:08.665Z,64.68
2023-02-01T05:24:12.422Z,65.26
2023-02-01T05:26:55.659Z,64.01
2023-02-01T05:29:41.541Z,64.93
2023-02-01T05:32:26.946Z,64.43
2023-02-01T05:35:11.891Z,64.58
2023-02-01T05:37:55.054Z,64.25
2023-02-01T05:40:38.151Z,63.93
2023-02-01T05:43:23.523Z,63.81
2023-02-01T05:46:09.875Z,63.72
2023-02-01T05:48:52.914Z,64.46
2023-02-01T05:51:37.390Z,64.20
2023-02-01T05:54:21.740Z,63.11
2023-02-01T05:57:05.455Z,62.84
2023-02-01T05:59:49.775Z,61.72
2023-02-01T06:02:36.059Z,62.37
2023-02-01T06:05:26.501Z,61.83
2023-02-01T06:08:11.073Z,62.64
2023-02-01T06:10:59.939Z,62.09
2023-02-01T06:13:42.985Z,62.25
2023-02-01T06:16:26.740Z,62.19
2023-02-01T06:19:09.925Z,61.87
2023-02-01T06:21:52.941Z,61.01
2023-02-01T06:24:41.365Z,60.89
2023-02-01T06:27:24.583Z,61.10
2023-02-01T06:30:11.803Z,61.20
2023-02-01T06:32:55.795Z,60.62
2023-02-01T06:35:38.888Z,59.91
2023-02-01T06:38:22.034Z,60.38
2023-02-01T06:41:07.448Z,60.50
2023-02-01T06:43:50.544Z,58.99
2023-02-01T06:46:33.871Z,59.23
2023-02-01T06:49:17.041Z,59.40
2023-02-01T06:52:01.311Z,58.66
2023-02-01T06:54:44.381Z,58.50
2023-02-01T06:57:33.969Z,58.25
2023-02-01T07:00:17.633Z,58.34
2023-02-01T07:03:02.139Z,57.73
2023-02-01T07:05:45.288Z,57.50
2023-02-01T07:08:29.751Z,58.37
2023-02-01T07:11:18.053Z,57.64
2023-02-01T07:14:02.771Z,57.64
2023-02-01T07:16:46.147Z,57.45
2023-02-01T07:19:30.473Z,56.49
2023-02-01T07:22:13.605Z,57.46
2023-02-01T07:24:59.131Z,57.23
2023-02-01T07:27:43.560Z,56.81
2023-02-01T07:30:28.736Z,56.27
2023-02-01T07:33:11.862Z,56.36
2023-02-01T07:35:55.275Z,56.61
2023-02-01T07:38:38.491Z,55.45
2023-02-01T07:41:21.589Z,54.86
2023-02-01T07:44:05.993Z,54.07
2023-02-01T07:46:50.680Z,55.19
2023-02-01T07:49:33.802Z,54.32
2023-02-01T07:52:18.072Z,54.30
2023-02-01T07:55:04.341Z,52.78
2023-02-01T07:57:47.497Z,53.44
2023-02-01T08:00:48.204Z,53.27
2023-02-01T08:03:34.233Z,52.95
2023-02-01T08:06:17.756Z,53.71
2023-02-01T08:09:01.089Z,54.52
2023-02-01T08:11:44.253Z,53.64
2023-02-01T08:14:29.700Z,53.06
2023-02-01T08:17:15.149Z,52.93
2023-02-01T08:20:00.601Z,51.79
2023-02-01T08:22:43.730Z,51.40
2023-02-01T08:25:27.312Z,51.47
2023-02-01T08:28:11.218Z,50.67
2023-02-01T08:30:56.789Z,49.58
2023-02-01T08:33:42.428Z,49.36
2023-02-01T08:36:28.893Z,47.64
2023-02-01T08:39:13.598Z,47.70
2023-02-01T08:42:10.571Z,48.53
2023-02-01T08:44:53.751Z,48.52
2023-02-01T08:47:37.379Z,48.08
2023-02-01T08:50:23.763Z,48.85
2023-02-01T08:53:10.239Z,48.14
2023-02-01T08:55:53.523Z,46.16
2023-02-01T08:58:36.643Z,45.10
2023-02-01T09:01:22.354Z,44.16
2023-02-01T09:04:07.998Z,42.40
2023-02-01T09:06:51.688Z,39.26
2023-02-01T09:09:38.446Z,38.79
2023-02-01T09:12:22.021Z,38.97
2023-02-01T09:15:15.612Z,37.29
2023-02-01T09:18:00.128Z,38.68
2023-02-01T09:20:43.285Z,40.33
2023-02-01T09:23:26.392Z,42.17
2023-02-01T09:26:17.168Z,43.78
2023-02-01T09:29:02.823Z,44.85
2023-02-01T09:31:57.755Z,43.93
2023-02-01T09:34:45.858Z,44.21
2023-02-01T09:37:29.233Z,43.36
2023-02-01T09:40:17.950Z,42.71
2023-02-01T09:43:23.648Z,38.68
2023-02-01T09:46:26.696Z,37.03
2023-02-01T09:49:17.673Z,37.37
2023-02-01T09:52:04.520Z,36.12
2023-02-01T09:54:55.022Z,37.05
2023-02-01T09:57:50.508Z,36.82
2023-02-01T10:00:38.021Z,35.65
2023-02-01T10:03:23.133Z,33.37
2023-02-01T10:06:31.097Z,34.55
2023-02-01T10:09:36.857Z,34.57
2023-02-01T10:12:51.826Z,34.47
2023-02-01T10:15:51.957Z,32.45
2023-02-01T10:18:52.510Z,26.75
2023-02-01T10:21:50.164Z,22.15
2023-02-01T10:24:46.409Z,17.14
2023-02-01T10:27:35.391Z,18.25
2023-02-01T10:30:26.005Z,18.25
2023-02-01T10:33:19.140Z,21.38
2023-02-01T10:36:08.064Z,18.62
2023-02-01T10:38:53.920Z,16.34
2023-02-01T10:41:40.345Z,15.41
2023-02-01T10:44:28.608Z,14.32
2023-02-01T10:47:12.558Z,13.49
2023-02-01T10:50:06.373Z,12.15
2023-02-01T10:52:55.116Z,12.37
2023-02-01T10:55:42.323Z,14.51
2023-02-01T10:58:30.442Z,15.39
2023-02-01T11:01:19.818Z,15.04
2023-02-01T11:04:04.510Z,13.07
2023-02-01T11:06:51.132Z,12.29
2023-02-01T11:09:34.537Z,12.57
2023-02-01T11:12:31.040Z,12.11
2023-02-01T11:15:22.470Z,11.87
2023-02-01T11:18:23.457Z,11.82
2023-02-01T11:21:09.162Z,11.61
2023-02-01T11:23:53.933Z,12.13
2023-02-01T11:26:42.878Z,11.22
2023-02-01T11:29:32.614Z,11.18
2023-02-01T11:32:18.956Z,10.47
2023-02-01T11:35:05.258Z,10.93
2023-02-01T11:37:55.386Z,10.78
2023-02-01T11:40:43.714Z,10.25
2023-02-01T11:43:28.935Z,9.57
2023-02-01T11:46:26.139Z,10.43
2023-02-01T11:49:23.437Z,10.60
2023-02-01T11:52:16.627Z,10.31
2023-02-01T11:55:16.720Z,11.80
2023-02-01T11:58:13.799Z,12.14
2023-02-01T12:01:19.473Z,13.47
2023-02-01T12:04:42.305Z,17.47
2023-02-01T12:07:37.776Z,21.90
2023-02-01T12:10:33.049Z,24.51
2023-02-01T12:13:39.467Z,26.34
2023-02-01T12:16:33.973Z,26.61
2023-02-01T12:19:27.800Z,29.76
2023-02-01T12:22:25.510Z,31.27
2023-02-01T12:25:23.844Z,33.11
2023-02-01T12:28:48.630Z,34.34
2023-02-01T12:32:17.711Z,35.96
2023-02-01T12:35:29.741Z,35.22
2023-02-01T12:38:45.269Z,37.24
2023-02-01T12:41:51.565Z,37.11
2023-02-01T12:44:50.845Z,38.26
2023-02-01T12:47:42.238Z,38.39
2023-02-01T12:50:35.696Z,39.37
2023-02-01T12:53:29.594Z,39.63
2023-02-01T12:56:21.060Z,38.94
2023-02-01T12:59:06.708Z,38.60
2023-02-01T13:01:57.717Z,39.43
2023-02-01T13:05:00.022Z,36.49
2023-02-01T13:07:49.623Z,37.34
2023-02-01T13:10:40.021Z,37.77
2023-02-01T13:13:31.273Z,38.36
2023-02-01T13:16:23.367Z,38.31
2023-02-01T13:19:17.454Z,40.13
2023-02-01T13:22:13.130Z,39.85
2023-02-01T13:25:00.258Z,39.80
2023-02-01T13:27:44.120Z,39.26
2023-02-01T13:30:36.074Z,39.32
2023-02-01T13:33:56.305Z,38.65
2023-02-01T13:36:56.493Z,39.72
2023-02-01T13:39:50.413Z,40.57
2023-02-01T13:42:40.121Z,40.33
2023-02-01T13:45:27.479Z,39.78
2023-02-01T13:48:24.136Z,39.08
2023-02-01T13:51:09.493Z,38.97
2023-02-01T13:53:55.317Z,41.03
2023-02-01T13:56:45.533Z,40.05
2023-02-01T13:59:56.956Z,39.29
2023-02-01T14:02:53.265Z,39.62
2023-02-01T14:06:12.850Z,39.18
2023-02-01T14:09:24.387Z,39.83
2023-02-01T14:12:46.532Z,38.59
2023-02-01T14:15:30.388Z,37.70
2023-02-01T14:18:47.571Z,38.37
2023-02-01T14:21:36.313Z,38.41
2023-02-01T14:24:30.074Z,38.06
2023-02-01T14:27:22.373Z,39.30
2023-02-01T14:30:19.684Z,38.88
2023-02-01T14:33:16.165Z,39.09
2023-02-01T14:36:11.921Z,39.34
2023-02-01T14:38:55.661Z,39.66
2023-02-01T14:41:46.569Z,40.21
2023-02-01T14:44:35.227Z,40.14
2023-02-01T14:47:34.331Z,41.23
2023-02-01T14:50:28.618Z,40.89
2023-02-01T14:53:21.547Z,41.15
2023-02-01T14:56:13.276Z,41.61
2023-02-01T14:59:05.247Z,41.49
2023-02-01T15:01:55.624Z,42.13
2023-02-01T15:04:45.797Z,42.71
2023-02-01T15:07:31.131Z,43.19
2023-02-01T15:10:15.007Z,43.42
2023-02-01T15:13:00.943Z,43.22
2023-02-01T15:15:45.442Z,43.39
2023-02-01T15:18:30.518Z,44.38
2023-02-01T15:21:29.509Z,44.59
2023-02-01T15:24:20.611Z,44.16
2023-02-01T15:27:08.577Z,44.29
2023-02-01T15:29:51.667Z,43.95
2023-02-01T15:32:39.375Z,44.75
2023-02-01T15:35:44.324Z,45.88
2023-02-01T15:38:40.319Z,44.95
2023-02-01T15:41:27.900Z,45.38
2023-02-01T15:44:23.219Z,45.81
2023-02-01T15:47:20.894Z,45.18
2023-02-01T15:50:06.272Z,45.07
2023-02-01T15:52:53.113Z,45.17
2023-02-01T15:55:41.456Z,45.14
2023-02-01T15:58:27.489Z,44.69
2023-02-01T16:01:14.860Z,45.01
2023-02-01T16:04:19.089Z,45.00
2023-02-01T16:07:06.324Z,44.99
2023-02-01T16:09:55.317Z,45.49
2023-02-01T16:12:49.295Z,45.18
2023-02-01T16:15:37.717Z,45.13
2023-02-01T16:18:21.112Z,45.41
2023-02-01T16:21:04.298Z,44.80
2023-02-01T16:23:55.158Z,46.31
2023-02-01T16:26:40.492Z,45.62
2023-02-01T16:29:30.588Z,45.96
2023-02-01T16:32:20.850Z,45.40
2023-02-01T16:35:07.019Z,45.67
2023-02-01T16:37:50.392Z,46.45
2023-02-01T16:40:38.023Z,45.80
2023-02-01T16:43:23.682Z,45.99
2023-02-01T16:46:09.269Z,46.46
2023-02-01T16:49:02.570Z,46.51
2023-02-01T16:51:45.793Z,46.18
2023-02-01T16:54:29.402Z,46.45
2023-02-01T16:57:18.383Z,46.70
2023-02-01T17:00:17.917Z,46.41
2023-02-01T17:03:06.286Z,47.64
2023-02-01T17:05:54.210Z,47.72
2023-02-01T17:08:39.687Z,46.67
2023-02-01T17:11:23.185Z,48.03
2023-02-01T17:14:19.665Z,47.43
2023-02-01T17:17:03.117Z,47.46
2023-02-01T17:19:51.304Z,47.52
2023-02-01T17:22:35.558Z,46.85
2023-02-01T17:25:22.240Z,46.80
2023-02-01T17:28:09.074Z,46.32
2023-02-01T17:30:53.645Z,47.20
2023-02-01T17:33:40.996Z,46.80
2023-02-01T17:36:26.957Z,46.68
2023-02-01T17:39:10.172Z,47.24
2023-02-01T17:41:56.241Z,47.28
2023-02-01T17:44:42.227Z,46.27
2023-02-01T17:47:26.752Z,46.72
2023-02-01T17:50:13.860Z,46.45
2023-02-01T17:52:59.709Z,45.99
2023-02-01T17:55:45.157Z,45.71
2023-02-01T17:58:30.587Z,45.34
2023-02-01T18:01:17.596Z,46.50
2023-02-01T18:04:02.819Z,47.06
2023-02-01T18:06:45.989Z,46.17
2023-02-01T18:09:29.165Z,47.06
2023-02-01T18:12:20.511Z,46.57
2023-02-01T18:15:03.696Z,47.37
2023-02-01T18:17:47.140Z,46.61
2023-02-01T18:20:36.901Z,47.34
2023-02-01T18:23:26.319Z,47.16
2023-02-01T18:26:12.689Z,47.35
2023-02-01T18:28:56.107Z,46.40
2023-02-01T18:31:46.279Z,46.48
2023-02-01T18:34:34.283Z,47.75
2023-02-01T18:37:19.143Z,49.02
2023-02-01T18:40:02.587Z,50.31
2023-02-01T18:42:46.197Z,52.66
2023-02-01T18:45:33.926Z,52.66
2023-02-01T18:48:19.743Z,53.05
2023-02-01T18:51:03.308Z,53.87
2023-02-01T18:53:50.641Z,54.62
2023-02-01T18:56:35.107Z,55.02
2023-02-01T18:59:18.816Z,56.00
2023-02-01T19:02:12.820Z,56.08
2023-02-01T19:04:56.386Z,56.53
2023-02-01T19:07:41.315Z,55.70
2023-02-01T19:10:26.232Z,56.46
2023-02-01T19:13:13.395Z,55.94
2023-02-01T19:15:59.483Z,56.77
2023-02-01T19:18:42.836Z,56.25
2023-02-01T19:21:26.712Z,57.27
2023-02-01T19:24:10.232Z,56.62
2023-02-01T19:26:57.603Z,57.66
2023-02-01T19:29:42.347Z,57.40
2023-02-01T19:32:25.768Z,57.34
2023-02-01T19:35:11.022Z,57.09
2023-02-01T19:37:54.135Z,59.42
2023-02-01T19:40:37.390Z,58.96
2023-02-01T19:46:19.478Z,59.00
2023-02-01T19:49:02.926Z,58.93
2023-02-01T19:51:46.130Z,59.89
2023-02-01T19:54:29.701Z,59.06
2023-02-01T19:57:12.895Z,58.26
2023-02-01T19:59:57.811Z,58.30
2023-02-01T20:02:40.308Z,58.77
2023-02-01T20:05:24.550Z,59.19
2023-02-01T20:08:10.437Z,59.39
2023-02-01T20:10:53.798Z,59.02
2023-02-01T20:13:38.799Z,58.24
2023-02-01T20:16:24.558Z,58.05
2023-02-01T20:19:09.510Z,58.02
2023-02-01T20:21:52.720Z,58.44
2023-02-01T20:24:35.838Z,58.54
2023-02-01T20:27:19.995Z,58.22
2023-02-01T20:30:03.113Z,57.81
2023-02-01T20:32:48.854Z,57.51
2023-02-01T20:35:33.238Z,59.28
2023-02-01T20:38:17.644Z,58.72
2023-02-01T20:41:05.450Z,59.27
2023-02-01T20:43:48.729Z,58.08
2023-02-01T20:46:31.921Z,59.75
2023-02-01T20:49:16.568Z,60.03
2023-02-01T20:51:59.586Z,59.29
2023-02-01T20:54:43.075Z,57.19
2023-02-01T20:57:26.742Z,57.21
2023-02-01T21:00:11.459Z,57.43
2023-02-01T21:02:54.915Z,58.33
2023-02-01T21:05:46.565Z,59.01
2023-02-01T21:08:30.922Z,56.74
2023-02-01T21:11:16.004Z,57.90
2023-02-01T21:13:59.139Z,57.25
2023-02-01T21:16:44.304Z,57.38
2023-02-01T21:19:30.181Z,57.69
2023-02-01T21:22:16.321Z,57.96
2023-02-01T21:25:01.224Z,57.77
2023-02-01T21:27:45.115Z,57.95
2023-02-01T21:30:30.567Z,58.30
2023-02-01T21:33:17.672Z,57.87
2023-02-01T21:36:01.145Z,57.91
2023-02-01T21:38:45.684Z,58.31
2023-02-01T21:41:46.119Z,59.01
2023-02-01T21:44:29.647Z,58.79
2023-02-01T21:47:12.832Z,57.68
2023-02-01T21:49:56.142Z,58.29
2023-02-01T21:52:40.307Z,58.88
2023-02-01T21:55:30.728Z,57.03
2023-02-01T21:58:14.409Z,56.74
2023-02-01T22:00:57.822Z,56.34
2023-02-01T22:03:43.558Z,56.26
2023-02-01T22:06:27.563Z,56.97
2023-02-01T22:09:19.755Z,55.97
2023-02-01T22:12:07.270Z,57.53
2023-02-01T22:14:50.413Z,56.48
2023-02-01T22:17:33.761Z,56.45
2023-02-01T22:20:18.865Z,55.12
2023-02-01T22:23:02.106Z,55.41
2023-02-01T22:25:45.324Z,55.52
2023-02-01T22:28:31.938Z,54.61
2023-02-01T22:31:16.993Z,55.39
2023-02-01T22:34:02.663Z,57.00
2023-02-01T22:36:48.895Z,56.84
2023-02-01T22:39:34.222Z,55.81
2023-02-01T22:42:17.411Z,56.82
2023-02-01T22:45:07.621Z,56.30
2023-02-01T22:47:50.968Z,56.66
2023-02-01T22:50:34.096Z,56.24
2023-02-01T22:53:17.437Z,55.60
2023-02-01T22:56:01.760Z,55.71
2023-02-01T22:58:44.825Z,55.58
2023-02-01T23:01:31.631Z,56.78
2023-02-01T23:04:16.372Z,56.28
2023-02-01T23:07:00.188Z,55.42
2023-02-01T23:09:45.301Z,55.40
2023-02-01T23:12:34.060Z,55.34
2023-02-01T23:15:18.403Z,55.25
2023-02-01T23:18:07.987Z,54.64
2023-02-01T23:20:51.130Z,55.10
2023-02-01T23:23:34.357Z,55.72
2023-02-01T23:26:18.683Z,55.98
2023-02-01T23:29:03.495Z,56.00
2023-02-01T23:31:47.023Z,54.52
2023-02-01T23:34:34.409Z,55.44
2023-02-01T23:37:17.490Z,56.16
2023-02-01T23:40:02.844Z,56.33
2023-02-01T23:43:07.185Z,56.68
2023-02-01T23:45:50.828Z,55.78
2023-02-01T23:48:35.011Z,55.63
2023-02-01T23:51:20.496Z,56.31
2023-02-01T23:54:03.969Z,55.97
2023-02-01T23:56:47.886Z,55.87
2023-02-01T23:59:33.086Z,56.15
